Time;durP1;ratioP1;P1;durP2;ratioP2;P2;SDS_P1;SDS_P2;PMS_P1;PMS_P2;Temp;Humidity;BMP_temperature;BMP_pressure;BME280_temperature;BME280_humidity;BME280_pressure;Samples;Min_cycle;Max_cycle;Signal;HPM_P1;HPM_P2
2021/08/06 00:02:08;;;;;;;7.78;7.00;;;23.80;72.10;;;;;;4174598;28;20799;-50
2021/08/06 00:04:29;;;;;;;8.15;7.35;;;23.80;72.30;;;;;;4205385;28;20044;-53
2021/08/06 00:06:51;;;;;;;8.18;7.32;;;23.80;72.30;;;;;;4207202;28;20051;-53
2021/08/06 00:09:13;;;;;;;8.43;7.72;;;23.80;72.30;;;;;;4206851;28;20127;-51
2021/08/06 00:11:37;;;;;;;8.18;7.47;;;23.80;72.30;;;;;;4208019;28;20101;-51
2021/08/06 00:14:01;;;;;;;8.75;7.95;;;23.80;72.30;;;;;;4209698;28;20051;-51
2021/08/06 00:16:24;;;;;;;7.78;7.20;;;23.80;72.40;;;;;;4210201;28;20040;-53
2021/08/06 00:18:45;;;;;;;8.35;7.75;;;23.80;72.50;;;;;;4209898;28;20039;-53
2021/08/06 00:21:08;;;;;;;8.25;7.53;;;23.80;72.50;;;;;;4210247;28;20498;-51
2021/08/06 00:23:29;;;;;;;9.18;7.72;;;23.80;72.60;;;;;;4209837;28;20048;-53
2021/08/06 00:25:52;;;;;;;8.85;7.97;;;23.80;72.50;;;;;;4210303;28;20052;-50
2021/08/06 00:28:15;;;;;;;8.13;7.43;;;23.70;72.50;;;;;;4210187;28;20498;-52
2021/08/06 00:30:38;;;;;;;8.73;7.93;;;23.70;72.40;;;;;;4209862;28;20052;-50
2021/08/06 00:33:00;;;;;;;8.15;7.45;;;23.70;72.50;;;;;;4208586;28;20525;-49
2021/08/06 00:35:29;;;;;;;8.43;7.75;;;23.70;72.50;;;;;;4208186;28;20528;-52
2021/08/06 00:37:52;;;;;;;8.15;7.45;;;23.70;72.50;;;;;;4208406;28;20051;-51
2021/08/06 00:40:17;;;;;;;9.02;8.18;;;23.70;72.50;;;;;;4234537;27;20158;-53
2021/08/06 00:42:40;;;;;;;8.25;7.45;;;23.70;72.60;;;;;;4205889;28;21299;-51
2021/08/06 00:45:09;;;;;;;8.32;7.65;;;23.70;72.70;;;;;;4191385;28;20094;-50
2021/08/06 00:47:32;;;;;;;7.82;7.03;;;23.60;72.60;;;;;;4192752;28;20052;-57
2021/08/06 00:49:54;;;;;;;8.48;7.65;;;23.60;72.50;;;;;;4191058;28;20053;-51
2021/08/06 00:52:17;;;;;;;8.52;7.70;;;23.60;72.60;;;;;;4190945;28;20067;-53
2021/08/06 00:54:42;;;;;;;8.45;7.60;;;23.60;72.60;;;;;;4206620;28;20044;-50
2021/08/06 00:57:13;;;;;;;8.25;7.47;;;23.60;72.60;;;;;;4191444;28;20052;-54
2021/08/06 00:59:36;;;;;;;9.00;8.10;;;23.60;72.60;;;;;;4200521;28;20529;-50
2021/08/06 01:02:08;;;;;;;10.80;7.72;;;23.60;72.70;;;;;;4191463;28;20133;-54
2021/08/06 01:04:44;;;;;;;8.35;7.55;;;23.60;72.70;;;;;;4202767;28;20504;-53
2021/08/06 01:07:12;;;;;;;8.68;8.00;;;23.60;72.80;;;;;;4207771;28;20068;-49
2021/08/06 01:09:41;;;;;;;9.20;8.50;;;23.60;72.80;;;;;;4198971;28;20048;-50
2021/08/06 01:12:09;;;;;;;8.55;7.75;;;23.50;72.70;;;;;;4190706;28;20103;-52
2021/08/06 01:14:41;;;;;;;8.80;7.93;;;23.50;73.30;;;;;;4184228;28;20047;-51
2021/08/06 01:17:14;;;;;;;9.68;8.20;;;23.50;72.80;;;;;;4190743;28;20083;-50
2021/08/06 01:19:54;;;;;;;8.40;7.70;;;23.50;72.80;;;;;;4197682;28;20044;-49
2021/08/06 01:22:22;;;;;;;8.77;7.97;;;23.50;72.90;;;;;;4174704;28;20049;-54
2021/08/06 01:24:53;;;;;;;10.10;8.23;;;23.50;72.90;;;;;;4207492;28;20554;-52
2021/08/06 01:27:20;;;;;;;8.57;7.65;;;23.50;72.90;;;;;;4209463;28;20052;-52
2021/08/06 01:29:42;;;;;;;8.80;7.90;;;23.50;73.00;;;;;;4197247;28;20129;-54
2021/08/06 01:32:04;;;;;;;9.45;8.55;;;23.50;72.90;;;;;;4190867;28;20056;-53
2021/08/06 01:34:26;;;;;;;7.53;6.93;;;23.40;72.90;;;;;;4183085;28;20052;-54
2021/08/06 01:36:48;;;;;;;8.10;6.75;;;23.40;73.00;;;;;;4202701;28;20036;-52
2021/08/06 01:39:20;;;;;;;9.07;8.27;;;23.40;73.00;;;;;;4206896;28;20048;-55
2021/08/06 01:41:53;;;;;;;7.80;7.10;;;23.50;73.10;;;;;;4207633;28;20044;-53
2021/08/06 01:44:24;;;;;;;9.80;7.80;;;23.40;73.00;;;;;;4206910;28;20047;-52
2021/08/06 01:46:51;;;;;;;7.70;7.10;;;23.40;72.80;;;;;;4208125;28;20509;-54
2021/08/06 01:49:18;;;;;;;8.07;7.32;;;23.40;73.70;;;;;;4208232;28;20042;-55
2021/08/06 01:51:43;;;;;;;7.60;6.85;;;23.40;72.80;;;;;;4206911;28;20058;-54
2021/08/06 01:54:07;;;;;;;11.50;7.65;;;23.40;73.00;;;;;;4201763;28;20043;-54
2021/08/06 01:56:30;;;;;;;7.90;7.22;;;23.40;73.00;;;;;;4208185;28;20051;-51
2021/08/06 01:58:55;;;;;;;8.55;7.65;;;23.40;73.80;;;;;;4207449;28;20056;-51
2021/08/06 02:01:29;;;;;;;8.52;7.65;;;23.40;72.90;;;;;;4206885;28;20045;-53
2021/08/06 02:04:03;;;;;;;7.70;7.00;;;23.40;73.00;;;;;;4190203;28;20584;-52
2021/08/06 02:06:28;;;;;;;8.00;7.20;;;23.40;73.00;;;;;;4195683;28;20101;-53
2021/08/06 02:09:01;;;;;;;8.13;7.10;;;23.40;73.00;;;;;;4206337;28;20180;-50
2021/08/06 02:11:28;;;;;;;9.10;7.18;;;23.30;72.90;;;;;;4207158;28;20036;-52
2021/08/06 02:13:52;;;;;;;7.22;6.63;;;23.30;72.90;;;;;;4193563;28;20905;-52
2021/08/06 02:16:17;;;;;;;9.27;7.32;;;23.30;73.00;;;;;;4206539;28;20055;-55
2021/08/06 02:18:41;;;;;;;7.50;6.90;;;23.30;72.90;;;;;;4207043;28;20059;-52
2021/08/06 02:21:10;;;;;;;8.05;7.45;;;23.30;73.00;;;;;;4208062;28;20074;-52
2021/08/06 02:23:36;;;;;;;8.23;7.43;;;23.30;72.90;;;;;;4206717;28;20048;-52
2021/08/06 02:26:00;;;;;;;7.85;7.25;;;23.30;73.00;;;;;;4191231;28;20125;-51
2021/08/06 02:28:28;;;;;;;8.18;6.72;;;23.30;73.00;;;;;;4206816;28;20068;-53
2021/08/06 02:30:52;;;;;;;8.07;7.32;;;23.30;73.00;;;;;;4207021;28;20036;-53
2021/08/06 02:33:17;;;;;;;7.82;7.03;;;23.30;72.90;;;;;;4190458;28;20942;-49
2021/08/06 02:35:40;;;;;;;7.47;6.88;;;23.20;73.10;;;;;;4189390;28;20052;-48
2021/08/06 02:38:03;;;;;;;8.35;6.78;;;23.20;73.10;;;;;;4178367;28;20049;-54
2021/08/06 02:40:25;;;;;;;8.15;7.05;;;23.20;74.00;;;;;;4207222;28;20052;-50
2021/08/06 02:42:51;;;;;;;9.93;6.82;;;23.20;73.10;;;;;;4206555;28;20044;-51
2021/08/06 02:45:13;;;;;;;6.63;6.13;;;23.20;73.10;;;;;;4207296;28;20513;-54
2021/08/06 02:47:35;;;;;;;7.18;6.53;;;23.20;73.00;;;;;;4206125;28;20052;-54
2021/08/06 02:49:59;;;;;;;7.03;6.40;;;23.20;73.00;;;;;;4207713;28;20500;-52
2021/08/06 02:52:23;;;;;;;7.03;6.43;;;23.20;73.00;;;;;;4206585;28;20050;-52
2021/08/06 02:54:46;;;;;;;7.10;6.55;;;23.20;73.00;;;;;;4189755;28;20088;-50
2021/08/06 02:57:08;;;;;;;8.40;6.68;;;23.20;73.00;;;;;;4199410;28;20516;-54
2021/08/06 02:59:30;;;;;;;7.10;6.43;;;23.20;73.00;;;;;;4207811;28;20051;-53
2021/08/06 03:01:52;;;;;;;7.95;7.25;;;23.20;73.00;;;;;;4207705;28;20048;-50
2021/08/06 03:04:15;;;;;;;7.13;6.28;;;23.20;73.00;;;;;;4205260;28;20048;-53
2021/08/06 03:06:37;;;;;;;8.95;6.63;;;23.20;73.00;;;;;;4205257;28;20051;-53
2021/08/06 03:09:01;;;;;;;7.72;7.03;;;23.20;73.00;;;;;;4206188;28;20047;-51
2021/08/06 03:11:23;;;;;;;7.50;6.45;;;23.10;72.90;;;;;;4206571;28;20536;-51
2021/08/06 03:13:45;;;;;;;7.28;6.57;;;23.10;73.10;;;;;;4206470;28;20071;-52
2021/08/06 03:16:08;;;;;;;7.50;6.82;;;23.10;73.10;;;;;;4205909;28;20039;-52
2021/08/06 03:18:31;;;;;;;9.75;7.25;;;23.10;73.00;;;;;;4205927;28;20075;-53
2021/08/06 03:20:55;;;;;;;7.97;7.18;;;23.10;72.90;;;;;;4206273;28;20098;-53
2021/08/06 03:23:18;;;;;;;7.15;6.55;;;23.10;73.00;;;;;;4205847;28;20052;-52
2021/08/06 03:25:42;;;;;;;7.43;6.82;;;23.10;73.00;;;;;;4205851;28;20044;-52
2021/08/06 03:28:04;;;;;;;7.25;6.70;;;23.10;73.00;;;;;;4205680;28;20051;-50
2021/08/06 03:30:28;;;;;;;6.82;6.32;;;23.10;73.00;;;;;;4206017;28;20131;-55
2021/08/06 03:32:51;;;;;;;8.27;7.32;;;23.00;73.00;;;;;;4206891;28;20051;-53
2021/08/06 03:35:14;;;;;;;10.02;6.45;;;23.00;73.10;;;;;;4205934;28;20054;-52
2021/08/06 03:37:37;;;;;;;6.93;6.40;;;23.00;73.10;;;;;;4206773;28;20129;-52
2021/08/06 03:40:00;;;;;;;9.63;6.50;;;23.00;73.10;;;;;;4206026;28;20105;-52
2021/08/06 03:42:25;;;;;;;9.00;6.88;;;23.00;73.10;;;;;;4205739;28;20048;-55
2021/08/06 03:44:47;;;;;;;7.85;6.95;;;23.00;73.10;;;;;;4207284;28;20082;-54
2021/08/06 03:47:14;;;;;;;10.43;7.25;;;23.00;73.10;;;;;;4207441;28;20109;-52
2021/08/06 03:49:36;;;;;;;7.93;7.22;;;23.00;73.20;;;;;;4209039;28;20048;-53
2021/08/06 03:51:58;;;;;;;8.15;7.28;;;23.00;73.30;;;;;;4194208;28;20129;-52
2021/08/06 03:54:21;;;;;;;7.80;7.00;;;23.00;73.10;;;;;;4209123;28;20074;-52
2021/08/06 03:56:43;;;;;;;7.57;6.90;;;23.00;74.20;;;;;;4208623;28;20487;-50
2021/08/06 03:59:07;;;;;;;7.75;7.05;;;22.90;73.30;;;;;;4209231;28;20055;-52
2021/08/06 04:01:30;;;;;;;6.72;6.22;;;22.90;73.30;;;;;;4208945;28;20552;-55
2021/08/06 04:03:52;;;;;;;7.63;6.88;;;22.90;73.20;;;;;;4208986;28;20052;-51
2021/08/06 04:06:15;;;;;;;7.13;6.43;;;22.90;73.20;;;;;;4210266;28;20040;-50
2021/08/06 04:08:37;;;;;;;7.70;6.85;;;22.90;73.30;;;;;;4209894;28;20044;-53
2021/08/06 04:10:59;;;;;;;9.02;7.28;;;22.90;73.30;;;;;;4209000;28;20047;-51
2021/08/06 04:13:21;;;;;;;10.90;7.88;;;22.90;73.30;;;;;;4208866;28;20134;-50
2021/08/06 04:15:45;;;;;;;7.47;6.70;;;22.90;73.30;;;;;;4192311;28;20424;-50
2021/08/06 04:18:07;;;;;;;7.55;6.82;;;22.90;73.30;;;;;;4207876;28;20055;-54
2021/08/06 04:20:29;;;;;;;7.78;6.97;;;22.90;73.30;;;;;;4208671;28;20139;-50
2021/08/06 04:22:51;;;;;;;8.10;6.97;;;22.90;73.40;;;;;;4209718;28;20490;-53
2021/08/06 04:25:14;;;;;;;8.18;7.03;;;22.90;73.30;;;;;;4208920;28;20134;-52
2021/08/06 04:27:36;;;;;;;11.73;7.22;;;22.90;73.40;;;;;;4208020;28;20048;-53
2021/08/06 04:29:58;;;;;;;10.63;6.85;;;22.90;73.50;;;;;;4208355;28;20120;-51
2021/08/06 04:32:22;;;;;;;7.72;7.03;;;22.90;73.50;;;;;;4209984;28;20168;-52
2021/08/06 04:34:44;;;;;;;8.02;7.32;;;22.90;73.50;;;;;;4198988;28;20071;-50
2021/08/06 04:37:06;;;;;;;7.13;6.50;;;22.90;73.40;;;;;;4198102;28;20064;-54
2021/08/06 04:39:29;;;;;;;8.57;6.75;;;22.90;73.50;;;;;;4200479;28;20395;-54
2021/08/06 04:41:51;;;;;;;7.97;7.13;;;22.90;74.30;;;;;;4210062;28;20044;-49
2021/08/06 04:44:13;;;;;;;10.10;7.00;;;22.90;73.50;;;;;;4198300;28;20044;-53
2021/08/06 04:46:35;;;;;;;7.88;7.10;;;22.90;73.60;;;;;;4209343;28;20140;-52
2021/08/06 04:48:58;;;;;;;8.10;7.40;;;22.90;73.60;;;;;;4209343;28;20048;-54
2021/08/06 04:51:21;;;;;;;11.70;7.60;;;22.90;73.60;;;;;;4208182;28;20046;-51
2021/08/06 04:53:42;;;;;;;7.05;6.35;;;22.80;73.60;;;;;;4207664;28;20047;-49
2021/08/06 04:56:05;;;;;;;8.70;7.28;;;22.90;73.70;;;;;;4208559;28;20055;-52
2021/08/06 04:58:27;;;;;;;7.35;6.43;;;22.90;73.80;;;;;;4204283;28;20048;-51
2021/08/06 05:00:50;;;;;;;9.55;7.25;;;22.80;73.80;;;;;;4208847;28;20052;-52
2021/08/06 05:03:16;;;;;;;8.35;7.55;;;22.80;73.80;;;;;;4208116;28;20094;-51
2021/08/06 05:05:47;;;;;;;8.98;6.10;;;22.80;74.00;;;;;;4196156;28;20161;-49
2021/08/06 05:08:09;;;;;;;8.50;6.78;;;22.90;74.00;;;;;;4207504;28;20097;-52
2021/08/06 05:10:32;;;;;;;8.25;6.25;;;22.90;74.10;;;;;;4191201;28;20080;-49
2021/08/06 05:12:54;;;;;;;6.82;6.13;;;22.80;74.10;;;;;;4199613;28;20052;-53
2021/08/06 05:15:17;;;;;;;7.47;6.35;;;22.80;74.20;;;;;;4207760;28;20132;-52
2021/08/06 05:17:39;;;;;;;7.85;6.28;;;22.80;74.20;;;;;;4208893;28;20044;-51
2021/08/06 05:20:02;;;;;;;6.90;6.30;;;22.80;74.10;;;;;;4209140;28;20494;-52
2021/08/06 05:22:25;;;;;;;7.50;6.75;;;22.80;74.00;;;;;;4207730;28;20709;-48
2021/08/06 05:24:47;;;;;;;8.38;7.10;;;22.80;74.30;;;;;;4207682;28;20486;-54
2021/08/06 05:27:09;;;;;;;6.68;6.03;;;22.80;74.40;;;;;;4207739;28;20055;-52
2021/08/06 05:29:31;;;;;;;6.97;6.28;;;22.80;74.40;;;;;;4208957;28;20070;-52
2021/08/06 05:31:53;;;;;;;6.70;5.80;;;22.80;74.40;;;;;;4207638;28;20452;-48
2021/08/06 05:34:15;;;;;;;10.35;6.47;;;22.80;74.10;;;;;;4190850;28;20133;-54
2021/08/06 05:36:38;;;;;;;6.57;5.47;;;22.90;74.70;;;;;;4198122;28;20125;-52
2021/08/06 05:39:01;;;;;;;6.45;5.85;;;22.90;74.50;;;;;;4206950;28;20056;-50
2021/08/06 05:41:25;;;;;;;7.13;6.50;;;22.90;74.20;;;;;;4207535;28;20067;-53
2021/08/06 05:43:47;;;;;;;7.18;6.45;;;22.90;74.10;;;;;;4194135;28;20502;-52
2021/08/06 05:46:11;;;;;;;6.82;6.22;;;22.80;74.00;;;;;;4207695;28;20044;-53
2021/08/06 05:48:33;;;;;;;7.97;6.30;;;22.80;74.00;;;;;;4208276;28;20131;-52
2021/08/06 05:50:55;;;;;;;6.38;5.78;;;22.80;74.00;;;;;;4208772;28;20065;-55
2021/08/06 05:53:19;;;;;;;9.13;5.78;;;22.80;74.00;;;;;;4206993;28;20052;-55
2021/08/06 05:55:49;;;;;;;7.30;6.50;;;22.70;74.80;;;;;;4207671;28;20461;-53
2021/08/06 05:58:11;;;;;;;8.95;6.95;;;22.80;74.00;;;;;;4207698;28;20173;-50
2021/08/06 06:00:33;;;;;;;6.47;5.80;;;22.70;74.00;;;;;;4207640;28;20075;-53
2021/08/06 06:03:17;;;;;;;7.95;7.00;;;22.80;74.00;;;;;;4208267;28;20104;-52
2021/08/06 06:05:49;;;;;;;7.00;6.13;;;22.70;73.80;;;;;;4207014;28;20093;-52
2021/08/06 06:08:11;;;;;;;7.22;6.05;;;22.70;73.90;;;;;;4207380;28;20056;-54
2021/08/06 06:10:33;;;;;;;7.75;6.63;;;22.70;73.90;;;;;;4207061;28;20549;-51
2021/08/06 06:12:57;;;;;;;6.68;6.07;;;22.70;73.80;;;;;;4206731;28;20417;-54
2021/08/06 06:15:19;;;;;;;6.82;6.32;;;22.70;73.80;;;;;;4196504;28;20051;-51
2021/08/06 06:17:43;;;;;;;7.30;6.55;;;22.70;73.80;;;;;;4207285;28;20047;-50
2021/08/06 06:20:06;;;;;;;7.10;6.28;;;22.70;73.90;;;;;;4208022;28;20040;-53
2021/08/06 06:22:28;;;;;;;6.43;5.93;;;22.70;73.80;;;;;;4206029;28;20494;-53
2021/08/06 06:24:50;;;;;;;7.38;6.50;;;22.70;73.90;;;;;;4207659;28;20058;-55
2021/08/06 06:27:12;;;;;;;6.88;6.32;;;22.70;73.90;;;;;;4204120;28;20105;-51
2021/08/06 06:29:36;;;;;;;9.20;7.47;;;22.70;73.90;;;;;;4190081;28;20094;-50
2021/08/06 06:31:58;;;;;;;8.48;6.63;;;22.70;73.80;;;;;;4190176;28;20177;-51
2021/08/06 06:34:21;;;;;;;7.53;6.82;;;22.70;74.00;;;;;;4200274;28;20524;-50
2021/08/06 06:36:44;;;;;;;8.35;7.03;;;22.70;73.80;;;;;;4206988;28;20086;-50
2021/08/06 06:39:07;;;;;;;7.85;6.40;;;22.70;73.80;;;;;;4206723;28;20059;-50
2021/08/06 06:41:30;;;;;;;6.18;5.68;;;22.70;73.90;;;;;;4206083;28;20101;-52
2021/08/06 06:44:00;;;;;;;8.80;6.95;;;22.70;73.90;;;;;;4190970;28;20052;-53
2021/08/06 06:46:23;;;;;;;7.03;6.32;;;22.70;74.20;;;;;;4207945;28;20518;-53
2021/08/06 06:48:45;;;;;;;7.00;6.30;;;22.70;74.00;;;;;;4199307;28;20105;-53
2021/08/06 06:51:07;;;;;;;6.82;6.20;;;22.70;74.00;;;;;;4206734;28;20142;-53
2021/08/06 06:53:30;;;;;;;6.57;5.97;;;22.70;74.00;;;;;;4206239;28;20570;-52
2021/08/06 06:55:52;;;;;;;7.28;6.20;;;22.70;74.00;;;;;;4206658;28;20044;-54
2021/08/06 06:58:14;;;;;;;10.75;6.25;;;22.60;74.00;;;;;;4206361;28;20102;-53
2021/08/06 07:00:37;;;;;;;8.70;6.88;;;22.70;74.10;;;;;;4189315;28;20052;-52
2021/08/06 07:03:04;;;;;;;7.20;6.50;;;22.70;74.10;;;;;;4189758;28;20102;-53
2021/08/06 07:05:27;;;;;;;8.82;6.15;;;22.70;74.00;;;;;;4189793;28;20040;-50
2021/08/06 07:07:51;;;;;;;7.55;6.75;;;22.70;74.00;;;;;;4201969;28;21587;-52
2021/08/06 07:10:14;;;;;;;8.57;6.97;;;22.70;74.10;;;;;;4206393;28;20052;-53
2021/08/06 07:12:36;;;;;;;7.90;7.13;;;22.70;75.00;;;;;;4207592;28;20422;-52
2021/08/06 07:15:04;;;;;;;7.60;6.88;;;22.60;74.00;;;;;;4205971;28;20411;-49
2021/08/06 07:17:26;;;;;;;8.25;7.15;;;22.70;74.10;;;;;;4206945;28;20048;-52
2021/08/06 07:19:49;;;;;;;8.13;6.80;;;22.70;74.10;;;;;;4205929;28;20480;-50
2021/08/06 07:22:11;;;;;;;7.97;6.88;;;22.80;75.00;;;;;;4205231;28;20387;-52
2021/08/06 07:24:34;;;;;;;7.72;6.95;;;22.80;74.80;;;;;;4206463;28;20067;-53
2021/08/06 07:26:56;;;;;;;8.23;6.57;;;22.80;74.40;;;;;;4205929;28;20048;-50
2021/08/06 07:29:18;;;;;;;9.40;7.45;;;22.80;74.30;;;;;;4205972;28;20413;-55
2021/08/06 07:31:40;;;;;;;7.13;6.38;;;22.80;74.30;;;;;;4206182;28;20056;-53
2021/08/06 07:34:03;;;;;;;9.55;6.43;;;22.80;74.40;;;;;;4206477;28;20039;-53
2021/08/06 07:36:27;;;;;;;12.13;6.90;;;22.80;74.40;;;;;;4204783;28;20085;-52
2021/08/06 07:38:49;;;;;;;7.03;6.25;;;22.80;74.60;;;;;;4206382;28;20067;-54
2021/08/06 07:41:12;;;;;;;7.90;6.00;;;22.80;74.60;;;;;;4206158;28;20082;-56
2021/08/06 07:43:34;;;;;;;7.70;7.00;;;22.80;74.60;;;;;;4207734;28;20039;-54
2021/08/06 07:45:56;;;;;;;7.78;6.32;;;22.80;74.60;;;;;;4207461;28;20493;-55
2021/08/06 07:48:18;;;;;;;7.97;6.95;;;22.70;74.50;;;;;;4207601;28;20121;-49
2021/08/06 07:50:41;;;;;;;6.57;6.03;;;22.70;74.50;;;;;;4191127;28;20414;-54
2021/08/06 07:53:05;;;;;;;7.35;5.47;;;22.80;74.60;;;;;;4189319;28;20419;-59
2021/08/06 07:55:27;;;;;;;6.00;5.35;;;22.80;74.70;;;;;;4201961;28;20055;-54
2021/08/06 07:57:49;;;;;;;6.43;5.53;;;22.80;74.70;;;;;;4205863;28;20048;-53
2021/08/06 08:00:13;;;;;;;6.38;5.78;;;22.70;74.60;;;;;;4206147;28;20067;-53
2021/08/06 08:02:38;;;;;;;7.07;5.63;;;22.70;74.70;;;;;;4206388;28;20052;-54
2021/08/06 08:05:01;;;;;;;6.47;4.88;;;22.70;74.60;;;;;;4207282;28;20095;-55
2021/08/06 08:07:24;;;;;;;6.47;4.75;;;22.80;74.70;;;;;;4207140;28;20097;-55
2021/08/06 08:09:47;;;;;;;5.65;5.20;;;22.70;74.60;;;;;;4205894;28;20044;-50
2021/08/06 08:12:10;;;;;;;6.00;5.28;;;22.70;74.70;;;;;;4206142;28;20052;-54
2021/08/06 08:14:32;;;;;;;10.82;5.40;;;22.80;74.80;;;;;;4205861;28;20541;-52
2021/08/06 08:16:54;;;;;;;5.50;5.10;;;22.80;74.80;;;;;;4205999;28;20050;-50
2021/08/06 08:19:18;;;;;;;5.28;4.88;;;22.70;74.70;;;;;;4190687;28;20048;-52
2021/08/06 08:21:40;;;;;;;5.13;4.43;;;22.80;74.90;;;;;;4189136;28;20123;-55
2021/08/06 08:24:03;;;;;;;5.75;5.25;;;22.80;74.90;;;;;;4189731;28;20052;-51
2021/08/06 08:26:27;;;;;;;5.28;4.78;;;22.80;74.80;;;;;;4207086;28;20054;-54
2021/08/06 08:28:51;;;;;;;5.28;4.78;;;22.80;74.90;;;;;;4205212;28;20043;-53
2021/08/06 08:31:13;;;;;;;5.38;4.78;;;22.70;74.80;;;;;;4205741;28;20052;-52
2021/08/06 08:33:36;;;;;;;6.13;5.53;;;22.70;74.80;;;;;;4206179;28;20537;-52
2021/08/06 08:35:58;;;;;;;6.03;5.20;;;22.70;75.80;;;;;;4209524;28;20120;-54
2021/08/06 08:38:20;;;;;;;7.32;5.32;;;22.80;74.90;;;;;;4208024;28;20105;-54
2021/08/06 08:40:43;;;;;;;4.68;4.25;;;22.80;75.00;;;;;;4208895;28;20468;-50
2021/08/06 08:43:07;;;;;;;5.22;4.72;;;22.80;75.60;;;;;;4208851;28;20051;-51
2021/08/06 08:45:30;;;;;;;11.05;4.03;;;22.90;75.30;;;;;;4209219;28;22382;-51
2021/08/06 08:47:53;;;;;;;5.15;4.72;;;22.90;75.10;;;;;;4206306;28;20079;-54
2021/08/06 08:50:16;;;;;;;5.20;4.70;;;22.80;75.10;;;;;;4208462;28;20512;-50
2021/08/06 08:52:38;;;;;;;6.13;4.47;;;22.80;75.10;;;;;;4206700;28;20464;-54
2021/08/06 08:55:00;;;;;;;4.95;4.53;;;22.80;75.00;;;;;;4209346;28;20079;-53
2021/08/06 08:57:24;;;;;;;5.38;4.63;;;22.90;75.10;;;;;;4207441;28;20044;-55
2021/08/06 08:59:50;;;;;;;4.82;4.43;;;22.90;75.10;;;;;;4208161;28;20068;-55
2021/08/06 09:02:12;;;;;;;5.60;4.50;;;22.90;75.10;;;;;;4208344;28;20054;-51
2021/08/06 09:04:34;;;;;;;4.97;4.47;;;22.90;75.10;;;;;;4196308;28;20425;-53
2021/08/06 09:06:58;;;;;;;4.65;4.18;;;22.80;75.10;;;;;;4207850;28;20491;-50
2021/08/06 09:09:27;;;;;;;5.53;4.70;;;22.90;75.10;;;;;;4207499;28;20537;-51
2021/08/06 09:12:09;;;;;;;5.10;4.63;;;22.80;75.20;;;;;;4207471;28;20040;-51
2021/08/06 09:14:43;;;;;;;7.50;4.88;;;22.80;75.20;;;;;;4206547;28;20048;-51
2021/08/06 09:17:09;;;;;;;8.50;5.20;;;22.80;75.20;;;;;;4206466;28;20137;-55
2021/08/06 09:19:33;;;;;;;7.53;5.13;;;22.80;75.30;;;;;;4209300;28;20112;-53
2021/08/06 09:22:10;;;;;;;5.10;4.60;;;22.80;75.30;;;;;;4208562;28;20054;-55
2021/08/06 09:24:32;;;;;;;6.63;5.00;;;22.80;76.20;;;;;;4209220;28;20482;-54
2021/08/06 09:26:55;;;;;;;4.78;4.38;;;22.80;75.30;;;;;;4209271;28;20047;-55
2021/08/06 09:29:21;;;;;;;5.65;4.03;;;22.80;75.40;;;;;;4209053;28;20456;-54
2021/08/06 09:31:55;;;;;;;2.63;2.50;;;22.80;75.50;;;;;;4208101;28;20059;-59
2021/08/06 09:34:23;;;;;;;2.55;2.35;;;22.80;75.60;;;;;;4197736;28;20135;-56
2021/08/06 09:37:00;;;;;;;2.58;2.45;;;22.80;75.60;;;;;;4209061;28;20056;-51
2021/08/06 09:39:23;;;;;;;2.97;2.75;;;22.80;75.70;;;;;;4208444;28;20047;-51
2021/08/06 09:41:59;;;;;;;3.28;3.03;;;22.80;75.80;;;;;;4209009;28;20537;-54
2021/08/06 09:44:25;;;;;;;2.60;2.13;;;22.80;75.70;;;;;;4208577;28;20090;-52
2021/08/06 09:46:47;;;;;;;2.75;2.55;;;22.80;75.80;;;;;;4208141;28;20043;-48
2021/08/06 09:49:10;;;;;;;3.10;2.80;;;22.80;75.70;;;;;;4208714;28;20043;-52
2021/08/06 09:51:37;;;;;;;2.60;2.40;;;22.90;76.10;;;;;;4208705;28;20051;-50
2021/08/06 09:53:59;;;;;;;2.85;2.65;;;22.90;76.10;;;;;;4208628;28;20055;-51
2021/08/06 09:56:21;;;;;;;3.63;3.20;;;23.00;75.80;;;;;;4208767;28;20391;-53
2021/08/06 09:58:59;;;;;;;3.65;3.30;;;23.00;75.80;;;;;;4204488;28;20146;-52
2021/08/06 10:01:21;;;;;;;3.38;3.17;;;23.10;75.70;;;;;;4201160;28;20493;-52
2021/08/06 10:03:44;;;;;;;2.97;2.78;;;23.10;76.00;;;;;;4208694;28;20493;-51
2021/08/06 10:06:12;;;;;;;3.38;3.17;;;23.10;75.60;;;;;;4207292;28;20048;-53
2021/08/06 10:08:36;;;;;;;2.75;2.50;;;23.10;75.60;;;;;;4208817;28;20051;-52
2021/08/06 10:10:58;;;;;;;3.10;2.90;;;23.00;75.70;;;;;;4206737;28;20050;-51
2021/08/06 10:13:20;;;;;;;3.25;2.95;;;23.00;75.90;;;;;;4208284;28;20074;-54
2021/08/06 10:15:43;;;;;;;3.35;3.05;;;23.00;76.00;;;;;;4208768;28;20055;-52
2021/08/06 10:18:05;;;;;;;3.78;3.47;;;23.00;76.10;;;;;;4208582;28;20055;-51
2021/08/06 10:20:29;;;;;;;4.05;3.28;;;23.00;76.30;;;;;;4208328;28;20068;-51
2021/08/06 10:22:51;;;;;;;5.28;4.10;;;23.00;76.40;;;;;;4207678;28;20075;-57
2021/08/06 10:25:16;;;;;;;4.88;4.03;;;23.00;76.40;;;;;;4208383;28;20044;-52
2021/08/06 10:27:42;;;;;;;4.45;4.03;;;23.00;76.40;;;;;;4208646;28;20555;-48
2021/08/06 10:30:08;;;;;;;5.43;4.22;;;22.90;76.30;;;;;;4207268;28;20135;-51
2021/08/06 10:32:30;;;;;;;6.70;5.30;;;22.90;76.50;;;;;;4207884;28;20043;-48
2021/08/06 10:35:16;;;;;;;5.72;4.47;;;22.90;76.50;;;;;;4208164;28;20048;-53
2021/08/06 10:37:59;;;;;;;5.85;5.32;;;22.90;76.60;;;;;;4204340;28;20494;-51
2021/08/06 10:44:02;;;;;;;5.15;4.75;;;22.90;76.60;;;;;;4191234;28;20049;-49
2021/08/06 10:46:25;;;;;;;4.97;4.57;;;22.90;76.70;;;;;;4191220;28;20044;-49
2021/08/06 10:48:48;;;;;;;5.35;4.85;;;22.90;76.80;;;;;;4204784;28;20051;-47
2021/08/06 10:51:31;;;;;;;6.75;5.80;;;22.90;76.80;;;;;;4207387;28;20066;-52
2021/08/06 10:54:30;;;;;;;4.75;3.80;;;22.90;76.80;;;;;;4198444;28;20412;-49
2021/08/06 10:57:32;;;;;;;3.33;2.92;;;22.90;76.90;;;;;;4206527;28;20105;-53
2021/08/06 11:00:03;;;;;;;8.18;5.25;;;22.90;76.90;;;;;;4206867;28;20101;-52
2021/08/06 11:02:49;;;;;;;5.28;4.25;;;22.90;76.80;;;;;;4204908;28;20052;-52
2021/08/06 11:05:38;;;;;;;9.50;5.88;;;23.00;76.90;;;;;;4190706;28;20041;-52
2021/08/06 11:08:03;;;;;;;8.65;4.68;;;23.00;76.80;;;;;;4201085;28;20074;-52
2021/08/06 11:10:48;;;;;;;5.80;5.07;;;23.00;76.80;;;;;;4206692;28;20054;-53
2021/08/06 11:13:53;;;;;;;3.88;3.50;;;23.00;76.90;;;;;;4207746;28;20525;-52
2021/08/06 11:16:17;;;;;;;4.30;3.78;;;23.00;76.80;;;;;;4170674;28;20681;-50
2021/08/06 11:18:42;;;;;;;4.07;3.78;;;23.00;76.80;;;;;;4206583;28;20056;-52
2021/08/06 11:21:04;;;;;;;12.73;7.18;;;23.00;77.00;;;;;;4206264;28;20054;-50
2021/08/06 11:23:27;;;;;;;4.78;4.35;;;23.00;77.00;;;;;;4207452;28;20528;-51
2021/08/06 11:25:51;;;;;;;10.38;5.97;;;23.00;76.90;;;;;;4207762;28;20040;-48
2021/08/06 11:28:25;;;;;;;3.90;3.58;;;23.10;76.90;;;;;;4207530;28;20052;-48
2021/08/06 11:30:47;;;;;;;5.25;4.03;;;23.10;76.80;;;;;;4207285;28;20054;-49
2021/08/06 11:33:11;;;;;;;5.05;4.47;;;23.10;77.00;;;;;;4207617;28;20494;-54
2021/08/06 11:35:39;;;;;;;15.27;7.32;;;23.10;77.30;;;;;;4205529;28;20475;-53
2021/08/06 11:38:03;;;;;;;4.30;3.60;;;23.10;77.40;;;;;;4207168;28;20068;-53
2021/08/06 11:40:26;;;;;;;2.72;2.53;;;23.10;77.20;;;;;;4207683;28;20070;-53
2021/08/06 11:42:49;;;;;;;7.68;4.22;;;23.10;77.50;;;;;;4207527;28;20048;-50
2021/08/06 11:45:13;;;;;;;9.27;4.95;;;23.10;77.60;;;;;;4207463;28;20406;-54
2021/08/06 11:47:42;;;;;;;7.05;3.75;;;23.10;77.40;;;;;;4207468;28;20486;-54
2021/08/06 11:50:06;;;;;;;2.58;1.67;;;23.10;77.50;;;;;;4207468;28;20060;-54
2021/08/06 11:52:37;;;;;;;5.95;2.97;;;23.10;77.50;;;;;;4207598;28;20102;-53
2021/08/06 11:54:59;;;;;;;3.67;2.33;;;23.10;77.60;;;;;;4191553;28;20060;-51
2021/08/06 11:57:22;;;;;;;8.52;4.32;;;23.10;77.50;;;;;;4190891;28;20063;-50
2021/08/06 11:59:44;;;;;;;5.97;3.53;;;23.10;77.50;;;;;;4190842;28;20045;-49
2021/08/06 12:02:16;;;;;;;3.22;2.47;;;23.10;77.50;;;;;;4190202;28;20414;-57
2021/08/06 12:04:39;;;;;;;7.82;3.65;;;23.20;77.40;;;;;;4188495;28;20048;-54
2021/08/06 12:07:02;;;;;;;4.03;2.97;;;23.20;77.30;;;;;;4206951;28;20117;-59
2021/08/06 12:09:24;;;;;;;3.67;2.47;;;23.20;77.20;;;;;;4210540;28;20063;-58
2021/08/06 12:11:47;;;;;;;3.78;3.00;;;23.20;77.40;;;;;;4209624;28;20043;-52
2021/08/06 12:14:09;;;;;;;5.45;3.00;;;23.30;78.30;;;;;;4193890;28;20056;-53
2021/08/06 12:16:36;;;;;;;5.38;3.00;;;23.30;77.80;;;;;;4193762;28;20498;-54
2021/08/06 12:18:59;;;;;;;5.05;3.10;;;23.30;77.70;;;;;;4193643;28;20132;-60
2021/08/06 12:21:25;;;;;;;3.58;3.20;;;23.30;77.60;;;;;;4209132;28;20054;-50
2021/08/06 12:23:53;;;;;;;3.83;3.10;;;23.30;77.70;;;;;;4209942;28;20040;-56
2021/08/06 12:26:19;;;;;;;6.40;2.53;;;23.40;78.10;;;;;;4209978;28;20054;-54
2021/08/06 12:28:43;;;;;;;3.30;2.75;;;23.40;78.20;;;;;;4194304;28;20068;-51
2021/08/06 12:31:15;;;;;;;3.60;3.35;;;23.40;78.30;;;;;;4193332;28;20139;-52
2021/08/06 12:33:38;;;;;;;5.70;3.20;;;23.50;78.40;;;;;;4192978;28;20080;-56
2021/08/06 12:36:09;;;;;;;4.13;2.83;;;23.50;78.40;;;;;;4192859;28;20058;-54
2021/08/06 12:38:31;;;;;;;3.78;3.08;;;23.50;78.30;;;;;;4193048;28;20080;-54